sensor_id;sensor_type;location;lat;lon;timestamp;P1;durP1;ratioP1;P2;durP2;ratioP2
809;SDS011;387;48.772;9.186;2023-04-24T00:00:54;1.93;;;1.13;;
809;SDS011;387;48.772;9.186;2023-04-24T00:03:23;2.43;;;1.23;;
809;SDS011;387;48.772;9.186;2023-04-24T00:05:49;2.13;;;1.30;;
809;SDS011;387;48.772;9.186;2023-04-24T00:08:16;2.83;;;1.43;;
809;SDS011;387;48.772;9.186;2023-04-24T00:10:42;2.23;;;1.20;;
809;SDS011;387;48.772;9.186;2023-04-24T00:13:07;1.57;;;1.10;;
809;SDS011;387;48.772;9.186;2023-04-24T00:15:33;2.90;;;1.40;;
809;SDS011;387;48.772;9.186;2023-04-24T00:17:59;2.50;;;1.33;;
809;SDS011;387;48.772;9.186;2023-04-24T00:20:26;2.27;;;1.30;;
809;SDS011;387;48.772;9.186;2023-04-24T00:22:53;2.47;;;1.30;;
809;SDS011;387;48.772;9.186;2023-04-24T00:25:18;3.20;;;1.07;;
809;SDS011;387;48.772;9.186;2023-04-24T00:27:44;2.20;;;1.33;;
809;SDS011;387;48.772;9.186;2023-04-24T00:30:10;1.50;;;1.00;;
809;SDS011;387;48.772;9.186;2023-04-24T00:32:35;1.30;;;1.00;;
809;SDS011;387;48.772;9.186;2023-04-24T00:35:01;1.50;;;1.17;;
809;SDS011;387;48.772;9.186;2023-04-24T00:37:27;1.87;;;1.07;;
809;SDS011;387;48.772;9.186;2023-04-24T00:39:52;2.70;;;1.17;;
809;SDS011;387;48.772;9.186;2023-04-24T00:42:18;4.80;;;1.40;;
809;SDS011;387;48.772;9.186;2023-04-24T00:44:43;1.73;;;1.10;;
809;SDS011;387;48.772;9.186;2023-04-24T00:47:09;3.40;;;1.17;;
809;SDS011;387;48.772;9.186;2023-04-24T00:49:36;1.93;;;1.20;;
809;SDS011;387;48.772;9.186;2023-04-24T00:52:02;1.90;;;1.10;;
809;SDS011;387;48.772;9.186;2023-04-24T00:54:32;4.50;;;1.30;;
809;SDS011;387;48.772;9.186;2023-04-24T00:56:58;2.77;;;1.27;;
809;SDS011;387;48.772;9.186;2023-04-24T00:59:23;6.50;;;1.30;;
809;SDS011;387;48.772;9.186;2023-04-24T01:01:49;3.20;;;1.10;;
809;SDS011;387;48.772;9.186;2023-04-24T01:04:16;1.40;;;1.00;;
809;SDS011;387;48.772;9.186;2023-04-24T01:06:42;1.70;;;1.20;;
809;SDS011;387;48.772;9.186;2023-04-24T01:09:10;3.10;;;1.20;;
809;SDS011;387;48.772;9.186;2023-04-24T01:11:37;1.50;;;1.17;;
809;SDS011;387;48.772;9.186;2023-04-24T01:14:02;1.47;;;1.20;;
809;SDS011;387;48.772;9.186;2023-04-24T01:16:28;3.97;;;1.40;;
809;SDS011;387;48.772;9.186;2023-04-24T01:18:54;4.03;;;1.20;;
809;SDS011;387;48.772;9.186;2023-04-24T01:21:19;1.87;;;0.90;;
809;SDS011;387;48.772;9.186;2023-04-24T01:23:46;4.00;;;1.50;;
809;SDS011;387;48.772;9.186;2023-04-24T01:26:12;1.73;;;1.17;;
809;SDS011;387;48.772;9.186;2023-04-24T01:28:40;2.63;;;1.33;;
809;SDS011;387;48.772;9.186;2023-04-24T01:31:06;4.43;;;1.40;;
809;SDS011;387;48.772;9.186;2023-04-24T01:33:32;2.10;;;1.40;;
809;SDS011;387;48.772;9.186;2023-04-24T01:35:58;3.93;;;1.40;;
809;SDS011;387;48.772;9.186;2023-04-24T01:38:24;2.23;;;1.30;;
809;SDS011;387;48.772;9.186;2023-04-24T01:40:50;2.33;;;1.07;;
809;SDS011;387;48.772;9.186;2023-04-24T01:43:16;4.83;;;1.73;;
809;SDS011;387;48.772;9.186;2023-04-24T01:45:43;3.33;;;1.23;;
809;SDS011;387;48.772;9.186;2023-04-24T01:48:08;3.17;;;1.30;;
809;SDS011;387;48.772;9.186;2023-04-24T01:50:34;2.20;;;1.20;;
809;SDS011;387;48.772;9.186;2023-04-24T01:53:00;2.90;;;1.47;;
809;SDS011;387;48.772;9.186;2023-04-24T01:55:26;1.70;;;1.20;;
809;SDS011;387;48.772;9.186;2023-04-24T01:57:55;5.07;;;1.40;;
809;SDS011;387;48.772;9.186;2023-04-24T02:00:21;1.37;;;1.27;;
809;SDS011;387;48.772;9.186;2023-04-24T02:02:47;7.73;;;1.50;;
809;SDS011;387;48.772;9.186;2023-04-24T02:05:12;2.70;;;1.10;;
809;SDS011;387;48.772;9.186;2023-04-24T02:07:38;1.17;;;1.03;;
809;SDS011;387;48.772;9.186;2023-04-24T02:10:04;2.50;;;1.27;;
809;SDS011;387;48.772;9.186;2023-04-24T02:12:30;2.03;;;1.20;;
809;SDS011;387;48.772;9.186;2023-04-24T02:14:56;1.60;;;1.00;;
809;SDS011;387;48.772;9.186;2023-04-24T02:17:22;3.73;;;1.40;;
809;SDS011;387;48.772;9.186;2023-04-24T02:19:48;1.53;;;1.20;;
809;SDS011;387;48.772;9.186;2023-04-24T02:22:13;2.77;;;1.33;;
809;SDS011;387;48.772;9.186;2023-04-24T02:24:39;7.90;;;1.40;;
809;SDS011;387;48.772;9.186;2023-04-24T02:27:05;2.23;;;1.33;;
809;SDS011;387;48.772;9.186;2023-04-24T02:29:30;3.50;;;1.40;;
809;SDS011;387;48.772;9.186;2023-04-24T02:31:56;2.40;;;1.27;;
809;SDS011;387;48.772;9.186;2023-04-24T02:34:22;3.57;;;1.10;;
809;SDS011;387;48.772;9.186;2023-04-24T02:36:48;1.70;;;1.20;;
809;SDS011;387;48.772;9.186;2023-04-24T02:39:14;2.70;;;1.30;;
809;SDS011;387;48.772;9.186;2023-04-24T02:41:41;2.13;;;1.07;;
809;SDS011;387;48.772;9.186;2023-04-24T02:44:07;2.27;;;1.30;;
809;SDS011;387;48.772;9.186;2023-04-24T02:46:33;1.87;;;1.10;;
809;SDS011;387;48.772;9.186;2023-04-24T02:48:59;2.50;;;1.37;;
809;SDS011;387;48.772;9.186;2023-04-24T02:51:24;2.43;;;1.40;;
809;SDS011;387;48.772;9.186;2023-04-24T02:53:50;3.00;;;1.43;;
809;SDS011;387;48.772;9.186;2023-04-24T02:56:15;1.83;;;1.30;;
809;SDS011;387;48.772;9.186;2023-04-24T02:58:41;1.60;;;1.20;;
809;SDS011;387;48.772;9.186;2023-04-24T03:01:07;2.43;;;1.50;;
809;SDS011;387;48.772;9.186;2023-04-24T03:03:35;1.83;;;1.27;;
809;SDS011;387;48.772;9.186;2023-04-24T03:06:01;2.40;;;1.27;;
809;SDS011;387;48.772;9.186;2023-04-24T03:08:27;1.97;;;1.10;;
809;SDS011;387;48.772;9.186;2023-04-24T03:10:52;1.57;;;1.27;;
809;SDS011;387;48.772;9.186;2023-04-24T03:13:18;1.90;;;1.00;;
809;SDS011;387;48.772;9.186;2023-04-24T03:15:43;1.70;;;1.20;;
809;SDS011;387;48.772;9.186;2023-04-24T03:18:10;2.10;;;1.30;;
809;SDS011;387;48.772;9.186;2023-04-24T03:20:35;2.20;;;1.27;;
809;SDS011;387;48.772;9.186;2023-04-24T03:23:02;2.03;;;1.30;;
809;SDS011;387;48.772;9.186;2023-04-24T03:25:28;2.83;;;1.17;;
809;SDS011;387;48.772;9.186;2023-04-24T03:27:53;3.50;;;1.30;;
809;SDS011;387;48.772;9.186;2023-04-24T03:30:19;3.07;;;1.43;;
809;SDS011;387;48.772;9.186;2023-04-24T03:32:45;1.70;;;1.20;;
809;SDS011;387;48.772;9.186;2023-04-24T03:35:10;3.50;;;1.33;;
809;SDS011;387;48.772;9.186;2023-04-24T03:37:36;2.37;;;1.13;;
809;SDS011;387;48.772;9.186;2023-04-24T03:40:02;3.87;;;1.43;;
809;SDS011;387;48.772;9.186;2023-04-24T03:42:28;2.37;;;1.47;;
809;SDS011;387;48.772;9.186;2023-04-24T03:44:53;1.30;;;1.00;;
809;SDS011;387;48.772;9.186;2023-04-24T03:47:19;1.77;;;1.20;;
809;SDS011;387;48.772;9.186;2023-04-24T03:49:45;1.83;;;1.30;;
809;SDS011;387;48.772;9.186;2023-04-24T03:52:10;1.90;;;1.40;;
809;SDS011;387;48.772;9.186;2023-04-24T03:54:36;1.50;;;1.20;;
809;SDS011;387;48.772;9.186;2023-04-24T03:57:01;2.10;;;1.43;;
809;SDS011;387;48.772;9.186;2023-04-24T03:59:29;2.30;;;1.17;;
809;SDS011;387;48.772;9.186;2023-04-24T04:02:15;1.37;;;1.00;;
809;SDS011;387;48.772;9.186;2023-04-24T04:04:40;1.63;;;1.27;;
809;SDS011;387;48.772;9.186;2023-04-24T04:07:06;3.53;;;1.00;;
809;SDS011;387;48.772;9.186;2023-04-24T04:09:32;1.40;;;1.13;;
809;SDS011;387;48.772;9.186;2023-04-24T04:11:58;2.13;;;1.10;;
809;SDS011;387;48.772;9.186;2023-04-24T04:14:23;1.93;;;1.10;;
809;SDS011;387;48.772;9.186;2023-04-24T04:16:49;1.90;;;1.30;;
809;SDS011;387;48.772;9.186;2023-04-24T04:19:15;6.23;;;1.00;;
809;SDS011;387;48.772;9.186;2023-04-24T04:21:40;4.33;;;0.93;;
809;SDS011;387;48.772;9.186;2023-04-24T04:24:06;3.37;;;1.40;;
809;SDS011;387;48.772;9.186;2023-04-24T04:26:32;2.53;;;1.30;;
809;SDS011;387;48.772;9.186;2023-04-24T04:28:58;3.30;;;1.20;;
809;SDS011;387;48.772;9.186;2023-04-24T04:31:25;3.03;;;1.40;;
809;SDS011;387;48.772;9.186;2023-04-24T04:33:51;2.60;;;1.13;;
809;SDS011;387;48.772;9.186;2023-04-24T04:36:16;2.20;;;1.23;;
809;SDS011;387;48.772;9.186;2023-04-24T04:38:42;2.30;;;1.40;;
809;SDS011;387;48.772;9.186;2023-04-24T04:41:09;3.10;;;1.30;;
809;SDS011;387;48.772;9.186;2023-04-24T04:43:35;2.17;;;1.50;;
809;SDS011;387;48.772;9.186;2023-04-24T04:46:01;2.80;;;1.50;;
809;SDS011;387;48.772;9.186;2023-04-24T04:48:28;2.10;;;1.27;;
809;SDS011;387;48.772;9.186;2023-04-24T04:50:56;2.67;;;1.57;;
809;SDS011;387;48.772;9.186;2023-04-24T04:53:22;2.20;;;1.67;;
809;SDS011;387;48.772;9.186;2023-04-24T04:55:48;2.33;;;1.60;;
809;SDS011;387;48.772;9.186;2023-04-24T04:58:14;3.53;;;1.60;;
809;SDS011;387;48.772;9.186;2023-04-24T05:00:39;3.07;;;2.00;;
809;SDS011;387;48.772;9.186;2023-04-24T05:03:06;2.30;;;1.50;;
809;SDS011;387;48.772;9.186;2023-04-24T05:05:32;1.83;;;1.27;;
809;SDS011;387;48.772;9.186;2023-04-24T05:07:57;2.80;;;1.80;;
809;SDS011;387;48.772;9.186;2023-04-24T05:10:23;3.30;;;1.50;;
809;SDS011;387;48.772;9.186;2023-04-24T05:12:48;3.30;;;1.80;;
809;SDS011;387;48.772;9.186;2023-04-24T05:15:14;5.20;;;1.70;;
809;SDS011;387;48.772;9.186;2023-04-24T05:17:40;5.53;;;1.60;;
809;SDS011;387;48.772;9.186;2023-04-24T05:20:06;2.63;;;1.60;;
809;SDS011;387;48.772;9.186;2023-04-24T05:22:32;3.30;;;1.90;;
809;SDS011;387;48.772;9.186;2023-04-24T05:24:58;1.77;;;1.50;;
809;SDS011;387;48.772;9.186;2023-04-24T05:27:24;4.23;;;2.20;;
809;SDS011;387;48.772;9.186;2023-04-24T05:29:49;3.30;;;1.97;;
809;SDS011;387;48.772;9.186;2023-04-24T05:32:15;4.60;;;2.23;;
809;SDS011;387;48.772;9.186;2023-04-24T05:34:40;3.10;;;1.73;;
809;SDS011;387;48.772;9.186;2023-04-24T05:37:06;9.93;;;2.90;;
809;SDS011;387;48.772;9.186;2023-04-24T05:39:34;4.60;;;2.30;;
809;SDS011;387;48.772;9.186;2023-04-24T05:42:00;4.17;;;2.60;;
809;SDS011;387;48.772;9.186;2023-04-24T05:44:26;2.90;;;2.07;;
809;SDS011;387;48.772;9.186;2023-04-24T05:46:52;3.50;;;1.90;;
809;SDS011;387;48.772;9.186;2023-04-24T05:49:18;5.37;;;2.23;;
809;SDS011;387;48.772;9.186;2023-04-24T05:51:43;3.30;;;2.40;;
809;SDS011;387;48.772;9.186;2023-04-24T05:54:09;3.30;;;2.30;;
809;SDS011;387;48.772;9.186;2023-04-24T05:56:37;3.73;;;2.03;;
809;SDS011;387;48.772;9.186;2023-04-24T05:59:02;2.50;;;2.00;;
809;SDS011;387;48.772;9.186;2023-04-24T06:01:28;3.53;;;2.17;;
809;SDS011;387;48.772;9.186;2023-04-24T06:03:54;4.67;;;1.70;;
809;SDS011;387;48.772;9.186;2023-04-24T06:06:20;3.93;;;2.00;;
809;SDS011;387;48.772;9.186;2023-04-24T06:08:45;2.63;;;1.70;;
809;SDS011;387;48.772;9.186;2023-04-24T06:11:11;5.23;;;2.07;;
809;SDS011;387;48.772;9.186;2023-04-24T06:13:37;4.70;;;2.10;;
809;SDS011;387;48.772;9.186;2023-04-24T06:16:02;2.67;;;2.00;;
809;SDS011;387;48.772;9.186;2023-04-24T06:18:28;4.17;;;2.40;;
809;SDS011;387;48.772;9.186;2023-04-24T06:20:54;3.23;;;1.90;;
809;SDS011;387;48.772;9.186;2023-04-24T06:23:20;3.60;;;2.40;;
809;SDS011;387;48.772;9.186;2023-04-24T06:25:46;2.70;;;1.90;;
809;SDS011;387;48.772;9.186;2023-04-24T06:28:12;3.00;;;2.17;;
809;SDS011;387;48.772;9.186;2023-04-24T06:30:37;3.83;;;2.20;;
809;SDS011;387;48.772;9.186;2023-04-24T06:33:03;4.03;;;2.27;;
809;SDS011;387;48.772;9.186;2023-04-24T06:35:29;4.20;;;2.33;;
809;SDS011;387;48.772;9.186;2023-04-24T06:37:54;3.23;;;2.17;;
809;SDS011;387;48.772;9.186;2023-04-24T06:40:21;2.80;;;2.00;;
809;SDS011;387;48.772;9.186;2023-04-24T06:42:47;3.03;;;2.07;;
809;SDS011;387;48.772;9.186;2023-04-24T06:45:12;4.73;;;2.30;;
809;SDS011;387;48.772;9.186;2023-04-24T06:47:38;4.07;;;2.50;;
809;SDS011;387;48.772;9.186;2023-04-24T06:50:03;6.57;;;2.67;;
809;SDS011;387;48.772;9.186;2023-04-24T06:52:30;5.20;;;2.47;;
809;SDS011;387;48.772;9.186;2023-04-24T06:55:01;2.63;;;2.17;;
809;SDS011;387;48.772;9.186;2023-04-24T06:57:28;3.60;;;2.40;;
809;SDS011;387;48.772;9.186;2023-04-24T06:59:54;4.33;;;2.37;;
809;SDS011;387;48.772;9.186;2023-04-24T07:02:20;4.90;;;2.47;;
809;SDS011;387;48.772;9.186;2023-04-24T07:04:46;4.90;;;2.70;;
809;SDS011;387;48.772;9.186;2023-04-24T07:07:13;3.97;;;2.67;;
809;SDS011;387;48.772;9.186;2023-04-24T07:09:39;3.83;;;2.63;;
809;SDS011;387;48.772;9.186;2023-04-24T07:12:07;4.70;;;2.33;;
809;SDS011;387;48.772;9.186;2023-04-24T07:14:33;3.20;;;2.23;;
809;SDS011;387;48.772;9.186;2023-04-24T07:16:59;6.10;;;2.83;;
809;SDS011;387;48.772;9.186;2023-04-24T07:19:26;5.67;;;2.30;;
809;SDS011;387;48.772;9.186;2023-04-24T07:21:51;2.20;;;2.00;;
809;SDS011;387;48.772;9.186;2023-04-24T07:24:18;3.67;;;2.20;;
809;SDS011;387;48.772;9.186;2023-04-24T07:26:44;3.43;;;2.43;;
809;SDS011;387;48.772;9.186;2023-04-24T07:29:11;2.63;;;1.90;;
809;SDS011;387;48.772;9.186;2023-04-24T07:31:37;3.87;;;2.30;;
809;SDS011;387;48.772;9.186;2023-04-24T07:34:03;2.60;;;1.93;;
809;SDS011;387;48.772;9.186;2023-04-24T07:36:29;4.63;;;2.20;;
809;SDS011;387;48.772;9.186;2023-04-24T07:38:55;3.53;;;1.93;;
809;SDS011;387;48.772;9.186;2023-04-24T07:41:22;2.07;;;1.63;;
809;SDS011;387;48.772;9.186;2023-04-24T07:43:49;3.60;;;2.10;;
809;SDS011;387;48.772;9.186;2023-04-24T07:46:14;2.93;;;1.90;;
809;SDS011;387;48.772;9.186;2023-04-24T07:48:40;4.20;;;2.17;;
809;SDS011;387;48.772;9.186;2023-04-24T07:51:06;3.07;;;2.00;;
809;SDS011;387;48.772;9.186;2023-04-24T07:53:31;7.43;;;2.80;;
809;SDS011;387;48.772;9.186;2023-04-24T07:55:57;4.10;;;1.70;;
809;SDS011;387;48.772;9.186;2023-04-24T07:58:23;3.13;;;2.13;;
809;SDS011;387;48.772;9.186;2023-04-24T08:00:48;2.60;;;2.10;;
809;SDS011;387;48.772;9.186;2023-04-24T08:03:14;2.03;;;1.67;;
809;SDS011;387;48.772;9.186;2023-04-24T08:05:43;1.80;;;1.50;;
809;SDS011;387;48.772;9.186;2023-04-24T08:08:08;3.80;;;1.80;;
809;SDS011;387;48.772;9.186;2023-04-24T08:10:34;4.90;;;1.97;;
809;SDS011;387;48.772;9.186;2023-04-24T08:12:59;2.83;;;2.07;;
809;SDS011;387;48.772;9.186;2023-04-24T08:15:25;3.20;;;1.80;;
809;SDS011;387;48.772;9.186;2023-04-24T08:17:52;4.03;;;2.27;;
809;SDS011;387;48.772;9.186;2023-04-24T08:20:17;3.37;;;1.90;;
809;SDS011;387;48.772;9.186;2023-04-24T08:22:43;3.93;;;2.07;;
809;SDS011;387;48.772;9.186;2023-04-24T08:25:10;3.23;;;1.90;;
809;SDS011;387;48.772;9.186;2023-04-24T08:27:36;3.57;;;2.23;;
809;SDS011;387;48.772;9.186;2023-04-24T08:30:02;4.77;;;1.90;;
809;SDS011;387;48.772;9.186;2023-04-24T08:32:29;7.60;;;2.10;;
809;SDS011;387;48.772;9.186;2023-04-24T08:34:58;5.47;;;2.07;;
809;SDS011;387;48.772;9.186;2023-04-24T08:37:25;3.20;;;1.90;;
809;SDS011;387;48.772;9.186;2023-04-24T08:39:51;3.50;;;2.57;;
809;SDS011;387;48.772;9.186;2023-04-24T08:42:18;4.10;;;2.07;;
809;SDS011;387;48.772;9.186;2023-04-24T08:44:44;3.50;;;2.30;;
809;SDS011;387;48.772;9.186;2023-04-24T08:47:12;4.03;;;2.03;;
809;SDS011;387;48.772;9.186;2023-04-24T08:49:39;4.60;;;2.30;;
809;SDS011;387;48.772;9.186;2023-04-24T08:52:05;4.50;;;2.30;;
809;SDS011;387;48.772;9.186;2023-04-24T08:54:31;3.23;;;2.07;;
809;SDS011;387;48.772;9.186;2023-04-24T08:56:59;2.73;;;1.80;;
809;SDS011;387;48.772;9.186;2023-04-24T08:59:26;5.67;;;2.20;;
809;SDS011;387;48.772;9.186;2023-04-24T09:01:53;3.80;;;2.10;;
809;SDS011;387;48.772;9.186;2023-04-24T09:04:20;5.03;;;2.20;;
809;SDS011;387;48.772;9.186;2023-04-24T09:06:49;3.63;;;1.97;;
809;SDS011;387;48.772;9.186;2023-04-24T09:09:22;3.30;;;2.50;;
809;SDS011;387;48.772;9.186;2023-04-24T09:11:53;3.53;;;2.30;;
809;SDS011;387;48.772;9.186;2023-04-24T09:14:20;3.10;;;2.10;;
809;SDS011;387;48.772;9.186;2023-04-24T09:16:48;6.63;;;2.50;;
809;SDS011;387;48.772;9.186;2023-04-24T09:19:13;3.60;;;2.13;;
809;SDS011;387;48.772;9.186;2023-04-24T09:21:39;3.23;;;2.17;;
809;SDS011;387;48.772;9.186;2023-04-24T09:24:07;5.00;;;2.13;;
809;SDS011;387;48.772;9.186;2023-04-24T09:26:39;3.77;;;2.57;;
809;SDS011;387;48.772;9.186;2023-04-24T09:29:05;7.67;;;2.83;;
809;SDS011;387;48.772;9.186;2023-04-24T09:31:31;4.20;;;2.43;;
809;SDS011;387;48.772;9.186;2023-04-24T09:34:00;4.20;;;2.53;;
809;SDS011;387;48.772;9.186;2023-04-24T09:36:34;4.60;;;1.93;;
809;SDS011;387;48.772;9.186;2023-04-24T09:39:04;3.30;;;2.20;;
809;SDS011;387;48.772;9.186;2023-04-24T09:41:33;4.00;;;2.77;;
809;SDS011;387;48.772;9.186;2023-04-24T09:44:10;3.03;;;1.80;;
809;SDS011;387;48.772;9.186;2023-04-24T09:46:49;5.50;;;2.20;;
809;SDS011;387;48.772;9.186;2023-04-24T09:49:27;3.90;;;2.13;;
809;SDS011;387;48.772;9.186;2023-04-24T09:52:08;3.33;;;2.03;;
809;SDS011;387;48.772;9.186;2023-04-24T09:54:35;4.33;;;2.30;;
809;SDS011;387;48.772;9.186;2023-04-24T09:57:04;3.07;;;2.00;;
809;SDS011;387;48.772;9.186;2023-04-24T09:59:32;4.37;;;2.17;;
809;SDS011;387;48.772;9.186;2023-04-24T10:01:59;4.43;;;2.20;;
809;SDS011;387;48.772;9.186;2023-04-24T10:04:26;3.43;;;2.07;;
809;SDS011;387;48.772;9.186;2023-04-24T10:06:53;3.47;;;1.80;;
809;SDS011;387;48.772;9.186;2023-04-24T10:09:21;1.80;;;1.50;;
809;SDS011;387;48.772;9.186;2023-04-24T10:11:51;2.30;;;1.53;;
809;SDS011;387;48.772;9.186;2023-04-24T10:14:22;2.37;;;1.50;;
809;SDS011;387;48.772;9.186;2023-04-24T10:16:49;2.70;;;1.60;;
809;SDS011;387;48.772;9.186;2023-04-24T10:19:17;2.70;;;1.87;;
809;SDS011;387;48.772;9.186;2023-04-24T10:21:43;4.07;;;1.43;;
809;SDS011;387;48.772;9.186;2023-04-24T10:24:12;2.73;;;1.60;;
809;SDS011;387;48.772;9.186;2023-04-24T10:26:42;2.90;;;1.60;;
809;SDS011;387;48.772;9.186;2023-04-24T10:29:11;2.00;;;1.70;;
809;SDS011;387;48.772;9.186;2023-04-24T10:31:38;2.77;;;1.60;;
809;SDS011;387;48.772;9.186;2023-04-24T10:34:05;4.13;;;1.97;;
809;SDS011;387;48.772;9.186;2023-04-24T10:36:31;3.03;;;1.50;;
809;SDS011;387;48.772;9.186;2023-04-24T10:38:59;3.27;;;2.00;;
809;SDS011;387;48.772;9.186;2023-04-24T10:41:27;2.80;;;2.00;;
809;SDS011;387;48.772;9.186;2023-04-24T10:44:08;4.63;;;1.90;;
809;SDS011;387;48.772;9.186;2023-04-24T10:46:38;2.47;;;1.97;;
809;SDS011;387;48.772;9.186;2023-04-24T10:49:07;2.50;;;1.60;;
809;SDS011;387;48.772;9.186;2023-04-24T10:51:44;6.40;;;1.90;;
809;SDS011;387;48.772;9.186;2023-04-24T10:54:24;1.77;;;1.40;;
809;SDS011;387;48.772;9.186;2023-04-24T10:59:45;3.43;;;1.70;;
809;SDS011;387;48.772;9.186;2023-04-24T11:02:15;6.43;;;1.80;;
809;SDS011;387;48.772;9.186;2023-04-24T11:04:41;2.87;;;1.90;;
809;SDS011;387;48.772;9.186;2023-04-24T11:07:11;3.27;;;2.00;;
809;SDS011;387;48.772;9.186;2023-04-24T11:09:37;6.13;;;2.50;;
809;SDS011;387;48.772;9.186;2023-04-24T11:12:14;2.50;;;1.60;;
809;SDS011;387;48.772;9.186;2023-04-24T11:17:34;2.73;;;1.90;;
809;SDS011;387;48.772;9.186;2023-04-24T11:20:09;3.90;;;2.07;;
809;SDS011;387;48.772;9.186;2023-04-24T11:22:37;3.17;;;1.93;;
809;SDS011;387;48.772;9.186;2023-04-24T11:25:07;4.77;;;2.13;;
809;SDS011;387;48.772;9.186;2023-04-24T11:27:43;5.20;;;1.80;;
809;SDS011;387;48.772;9.186;2023-04-24T11:30:16;3.27;;;2.23;;
809;SDS011;387;48.772;9.186;2023-04-24T11:32:43;3.53;;;2.17;;
809;SDS011;387;48.772;9.186;2023-04-24T11:35:21;3.20;;;1.90;;
809;SDS011;387;48.772;9.186;2023-04-24T11:37:50;3.53;;;2.00;;
809;SDS011;387;48.772;9.186;2023-04-24T11:40:18;2.87;;;1.87;;
809;SDS011;387;48.772;9.186;2023-04-24T11:42:54;4.33;;;2.07;;
809;SDS011;387;48.772;9.186;2023-04-24T11:45:24;3.40;;;1.70;;
809;SDS011;387;48.772;9.186;2023-04-24T11:47:52;2.63;;;1.60;;
809;SDS011;387;48.772;9.186;2023-04-24T11:50:19;2.97;;;1.80;;
809;SDS011;387;48.772;9.186;2023-04-24T11:52:48;2.90;;;1.90;;
809;SDS011;387;48.772;9.186;2023-04-24T11:57:43;3.40;;;2.00;;
809;SDS011;387;48.772;9.186;2023-04-24T12:00:15;2.43;;;1.80;;
809;SDS011;387;48.772;9.186;2023-04-24T12:02:42;2.23;;;1.80;;
809;SDS011;387;48.772;9.186;2023-04-24T12:05:07;2.40;;;1.70;;
809;SDS011;387;48.772;9.186;2023-04-24T12:07:40;3.93;;;1.87;;
809;SDS011;387;48.772;9.186;2023-04-24T12:10:08;3.50;;;1.93;;
809;SDS011;387;48.772;9.186;2023-04-24T12:12:34;5.27;;;1.60;;
809;SDS011;387;48.772;9.186;2023-04-24T12:15:00;3.37;;;1.90;;
809;SDS011;387;48.772;9.186;2023-04-24T12:17:27;2.63;;;1.87;;
809;SDS011;387;48.772;9.186;2023-04-24T12:20:01;3.10;;;2.00;;
809;SDS011;387;48.772;9.186;2023-04-24T12:22:42;5.00;;;2.47;;
809;SDS011;387;48.772;9.186;2023-04-24T12:25:09;2.30;;;1.80;;
809;SDS011;387;48.772;9.186;2023-04-24T12:27:38;4.37;;;2.40;;
809;SDS011;387;48.772;9.186;2023-04-24T12:30:04;2.70;;;1.87;;
809;SDS011;387;48.772;9.186;2023-04-24T12:32:41;3.77;;;2.00;;
809;SDS011;387;48.772;9.186;2023-04-24T12:35:07;2.40;;;1.90;;
809;SDS011;387;48.772;9.186;2023-04-24T12:37:36;4.60;;;2.00;;
809;SDS011;387;48.772;9.186;2023-04-24T12:40:07;3.77;;;1.90;;
809;SDS011;387;48.772;9.186;2023-04-24T12:42:35;5.23;;;2.33;;
809;SDS011;387;48.772;9.186;2023-04-24T12:45:05;4.70;;;2.43;;
809;SDS011;387;48.772;9.186;2023-04-24T12:47:31;4.30;;;2.20;;
809;SDS011;387;48.772;9.186;2023-04-24T12:49:58;2.57;;;1.90;;
809;SDS011;387;48.772;9.186;2023-04-24T12:52:25;3.53;;;2.47;;
809;SDS011;387;48.772;9.186;2023-04-24T12:54:53;2.97;;;1.90;;
809;SDS011;387;48.772;9.186;2023-04-24T12:57:20;6.70;;;2.23;;
809;SDS011;387;48.772;9.186;2023-04-24T12:59:46;3.10;;;1.70;;
809;SDS011;387;48.772;9.186;2023-04-24T13:02:12;2.30;;;1.80;;
809;SDS011;387;48.772;9.186;2023-04-24T13:04:38;2.70;;;1.57;;
809;SDS011;387;48.772;9.186;2023-04-24T13:07:04;2.17;;;1.60;;
809;SDS011;387;48.772;9.186;2023-04-24T13:09:30;4.20;;;2.50;;
809;SDS011;387;48.772;9.186;2023-04-24T13:11:56;2.20;;;1.50;;
809;SDS011;387;48.772;9.186;2023-04-24T13:14:22;1.80;;;1.63;;
809;SDS011;387;48.772;9.186;2023-04-24T13:16:48;4.97;;;2.13;;
809;SDS011;387;48.772;9.186;2023-04-24T13:19:14;5.80;;;2.17;;
809;SDS011;387;48.772;9.186;2023-04-24T13:21:40;3.10;;;1.90;;
809;SDS011;387;48.772;9.186;2023-04-24T13:24:05;3.23;;;1.70;;
809;SDS011;387;48.772;9.186;2023-04-24T13:26:33;1.70;;;1.43;;
809;SDS011;387;48.772;9.186;2023-04-24T13:28:58;2.17;;;1.70;;
809;SDS011;387;48.772;9.186;2023-04-24T13:31:24;1.90;;;1.80;;
809;SDS011;387;48.772;9.186;2023-04-24T13:33:50;2.60;;;2.00;;
809;SDS011;387;48.772;9.186;2023-04-24T13:36:15;2.10;;;1.90;;
809;SDS011;387;48.772;9.186;2023-04-24T13:38:42;3.83;;;2.40;;
809;SDS011;387;48.772;9.186;2023-04-24T13:41:09;2.43;;;1.97;;
809;SDS011;387;48.772;9.186;2023-04-24T13:43:35;4.13;;;1.97;;
809;SDS011;387;48.772;9.186;2023-04-24T13:46:01;3.77;;;2.77;;
809;SDS011;387;48.772;9.186;2023-04-24T13:48:28;3.37;;;2.60;;
809;SDS011;387;48.772;9.186;2023-04-24T13:50:54;3.10;;;2.13;;
809;SDS011;387;48.772;9.186;2023-04-24T13:53:22;4.60;;;2.57;;
809;SDS011;387;48.772;9.186;2023-04-24T13:55:47;5.73;;;2.43;;
809;SDS011;387;48.772;9.186;2023-04-24T13:58:13;4.37;;;2.63;;
809;SDS011;387;48.772;9.186;2023-04-24T14:00:43;8.00;;;2.80;;
809;SDS011;387;48.772;9.186;2023-04-24T14:03:08;7.20;;;2.40;;
809;SDS011;387;48.772;9.186;2023-04-24T14:05:34;4.13;;;2.20;;
809;SDS011;387;48.772;9.186;2023-04-24T14:08:00;2.33;;;1.67;;
809;SDS011;387;48.772;9.186;2023-04-24T14:10:25;3.87;;;1.87;;
809;SDS011;387;48.772;9.186;2023-04-24T14:12:52;2.87;;;2.00;;
809;SDS011;387;48.772;9.186;2023-04-24T14:15:18;10.00;;;2.50;;
809;SDS011;387;48.772;9.186;2023-04-24T14:17:44;2.93;;;2.00;;
809;SDS011;387;48.772;9.186;2023-04-24T14:20:09;2.87;;;2.13;;
809;SDS011;387;48.772;9.186;2023-04-24T14:22:37;2.37;;;1.80;;
809;SDS011;387;48.772;9.186;2023-04-24T14:25:02;3.80;;;2.13;;
809;SDS011;387;48.772;9.186;2023-04-24T14:27:29;3.50;;;2.20;;
809;SDS011;387;48.772;9.186;2023-04-24T14:29:55;3.03;;;2.23;;
809;SDS011;387;48.772;9.186;2023-04-24T14:32:20;2.73;;;1.80;;
809;SDS011;387;48.772;9.186;2023-04-24T14:34:46;3.33;;;2.00;;
809;SDS011;387;48.772;9.186;2023-04-24T14:37:12;2.77;;;1.60;;
809;SDS011;387;48.772;9.186;2023-04-24T14:39:37;3.53;;;1.90;;
809;SDS011;387;48.772;9.186;2023-04-24T14:42:03;3.10;;;2.10;;
809;SDS011;387;48.772;9.186;2023-04-24T14:44:28;2.47;;;1.90;;
809;SDS011;387;48.772;9.186;2023-04-24T14:46:54;2.63;;;1.67;;
809;SDS011;387;48.772;9.186;2023-04-24T14:49:20;6.60;;;2.17;;
809;SDS011;387;48.772;9.186;2023-04-24T14:51:45;4.57;;;2.70;;
809;SDS011;387;48.772;9.186;2023-04-24T14:54:11;4.23;;;2.20;;
809;SDS011;387;48.772;9.186;2023-04-24T14:56:37;2.93;;;2.20;;
809;SDS011;387;48.772;9.186;2023-04-24T14:59:05;3.27;;;2.10;;
809;SDS011;387;48.772;9.186;2023-04-24T15:01:31;2.80;;;2.20;;
809;SDS011;387;48.772;9.186;2023-04-24T15:03:57;3.00;;;2.20;;
809;SDS011;387;48.772;9.186;2023-04-24T15:06:23;4.10;;;2.67;;
809;SDS011;387;48.772;9.186;2023-04-24T15:08:49;4.27;;;2.47;;
809;SDS011;387;48.772;9.186;2023-04-24T15:11:15;3.23;;;2.30;;
809;SDS011;387;48.772;9.186;2023-04-24T15:13:41;4.23;;;2.57;;
809;SDS011;387;48.772;9.186;2023-04-24T15:16:06;4.50;;;2.70;;
809;SDS011;387;48.772;9.186;2023-04-24T15:18:32;6.17;;;2.60;;
809;SDS011;387;48.772;9.186;2023-04-24T15:20:58;4.30;;;2.60;;
809;SDS011;387;48.772;9.186;2023-04-24T15:23:23;3.60;;;2.50;;
809;SDS011;387;48.772;9.186;2023-04-24T15:25:49;4.30;;;2.43;;
809;SDS011;387;48.772;9.186;2023-04-24T15:28:15;6.10;;;2.50;;
809;SDS011;387;48.772;9.186;2023-04-24T15:30:41;4.37;;;2.30;;
809;SDS011;387;48.772;9.186;2023-04-24T15:33:06;4.30;;;2.40;;
809;SDS011;387;48.772;9.186;2023-04-24T15:35:33;3.30;;;2.60;;
809;SDS011;387;48.772;9.186;2023-04-24T15:37:58;4.20;;;2.60;;
809;SDS011;387;48.772;9.186;2023-04-24T15:40:24;3.30;;;2.53;;
809;SDS011;387;48.772;9.186;2023-04-24T15:42:50;3.83;;;2.80;;
809;SDS011;387;48.772;9.186;2023-04-24T15:45:16;5.53;;;3.40;;
809;SDS011;387;48.772;9.186;2023-04-24T15:47:41;5.00;;;3.23;;
809;SDS011;387;48.772;9.186;2023-04-24T15:50:09;4.63;;;2.63;;